18 Jul 2018 03:06 UTC 2018199+03:06 UTC

Overview Datums Bench Marks Data Query Site Visit Daily QC Messages Attributes

171: National Park Service - Bird Island

27° 29' 4" N   97° 19' 5" W
NPSBI
United States National Park Service United States National Park Service

Station Information

National Park Service - Bird Island
National Park Service - Bird Island
more pictures
 
Station Name:National Park Service - Bird Island
DNR ID:171
Location:27° 29' 4" N, 97° 19' 5" W

Water Level Forecasts

Latest Observations

Series Metric English Marine Observed at
Water Temperature 31.2 °C 88.2 °F 88.2 °F Jul 17 21:42 CDT
00h13m ago
Salinity 37.000 psu 37.000 psu 37.000 psu Jul 17 21:42 CDT
00h13m ago
pH 8.62 pH 8.62 pH 8.62 pH Jul 17 21:42 CDT
00h13m ago
Turbidity 2 ntu 2 ntu 2 ntu Jul 17 21:42 CDT
00h13m ago
Dissolved Oxygen 5.19 mg/L 0.000324 lb/ft3 0.000324 lb/ft3 Jul 17 21:42 CDT
00h13m ago

Maps

National Park Service - Bird Island
All Stations in Area
Entire Network
 

Recent Observations

Date/Time Water
Temp (°F)
Sal (psu) pH (pH) Turb (ntu) DO (lb/ft3)
Jul 17 21:00 CDT 88.7 37.000 8.52 2 0.000358
Jul 17 20:00 CDT 89.2 36.900 8.67 2 0.000406
Jul 17 19:00 CDT 90.0 37.000 8.68 2 0.000443
Jul 17 18:00 CDT 90.3 37.000 8.68 2 0.000466
Jul 17 17:00 CDT 90.7 37.200 8.67 2 0.000485
Jul 17 16:00 CDT 90.3 37.200 8.65 2 0.000480
Jul 17 15:00 CDT 89.4 37.200 8.60 2 0.000444
Jul 17 14:00 CDT 88.3 37.200 8.57 2 0.000407
Jul 17 13:00 CDT 87.3 37.200 8.54 2 0.000351
Jul 17 12:00 CDT 86.2 37.300 8.51 2 0.000306
Jul 17 11:00 CDT 85.5 37.300 8.49 2 0.000265
Jul 17 10:00 CDT 84.6 37.400 8.48 2 0.000230
Jul 17 09:00 CDT 83.8 37.500 8.47 2 0.000210
Jul 17 08:00 CDT 83.8 37.600 8.47 2 0.000180
Jul 17 07:00 CDT 84.4 37.600 8.48 2 0.000178
Jul 17 06:00 CDT 84.6 37.600 8.50 2 0.000208
Jul 17 05:00 CDT 84.7 37.700 8.51 2 0.000223
Jul 17 04:00 CDT 84.9 37.800 8.53 2 0.000225
Jul 17 03:00 CDT 84.9 37.900 8.53 1 0.000230
Jul 17 02:00 CDT 85.3 38.000 8.53 2 0.000217
Jul 17 01:00 CDT 85.6 38.000 8.51 2 0.000227
Jul 17 00:00 CDT 86.2 38.000 8.55 2 0.000257
Jul 16 23:00 CDT 86.7 38.000 8.58 2 0.000277
Jul 16 22:00 CDT 87.3 38.000 8.61 2 0.000316
Jul 16 21:00 CDT 88.0 37.900 8.63 2 0.000350

Historical Data Availability